createdAt,value
2023-10-29T00:00:26.116Z,99065.72
2023-10-29T00:05:27.650Z,99067.56
2023-10-29T00:10:29.076Z,99065.69
2023-10-29T00:15:30.552Z,99077.31
2023-10-29T00:20:31.998Z,99080.97
2023-10-29T00:25:33.423Z,99077.56
2023-10-29T00:30:34.853Z,99043.16
2023-10-29T00:35:36.252Z,99057.56
2023-10-29T00:40:40.850Z,99034.66
2023-10-29T00:45:42.869Z,99043.09
2023-10-29T00:50:44.297Z,99056.28
2023-10-29T00:55:45.777Z,99047.66
2023-10-29T01:00:47.419Z,99028.31
2023-10-29T01:05:49.569Z,99032.53
2023-10-29T01:10:52.565Z,99013.19
2023-10-29T01:15:53.953Z,98981.66
2023-10-29T01:20:55.353Z,98969.59
2023-10-29T01:25:58.021Z,98963.84
2023-10-29T01:31:00.345Z,98982.28
2023-10-29T01:36:01.967Z,98996.78
2023-10-29T01:41:03.505Z,99012.06
2023-10-29T01:46:04.923Z,98999.69
2023-10-29T01:51:06.805Z,98987.03
2023-10-29T01:56:08.912Z,98980.75
2023-10-29T02:01:11.719Z,99002.22
2023-10-29T02:06:17.162Z,98998.66
2023-10-29T02:11:18.492Z,98975.72
2023-10-29T02:16:19.904Z,98985.75
2023-10-29T02:21:21.904Z,98962.81
2023-10-29T02:26:23.849Z,98965.84
2023-10-29T02:31:25.461Z,98937.59
2023-10-29T02:36:26.843Z,98948.94
2023-10-29T02:41:28.301Z,98945.91
2023-10-29T02:46:31.846Z,98951.81
2023-10-29T02:51:33.525Z,98933.19
2023-10-29T02:56:36.846Z,98935.25
2023-10-29T03:01:38.554Z,98927.69
2023-10-29T03:06:40.544Z,98930.75
2023-10-29T03:11:41.989Z,98911.75
2023-10-29T03:16:43.384Z,98926.03
2023-10-29T03:21:44.804Z,98897.59
2023-10-29T03:26:46.222Z,98876.13
2023-10-29T03:31:48.030Z,98858.94
2023-10-29T03:36:49.612Z,98879.44
2023-10-29T03:41:51.019Z,98863.75
2023-10-29T03:46:52.767Z,98880.31
2023-10-29T03:51:54.222Z,98882.44
2023-10-29T03:56:55.665Z,98872.25
2023-10-29T04:01:57.100Z,98881.41
2023-10-29T04:06:58.499Z,98875.00
2023-10-29T04:12:00.485Z,98855.56
2023-10-29T04:17:01.921Z,98843.78
2023-10-29T04:22:04.050Z,98803.69
2023-10-29T04:27:05.773Z,98877.91
2023-10-29T04:32:07.274Z,98857.94
2023-10-29T04:37:08.628Z,98876.19
2023-10-29T04:42:09.968Z,98846.69
2023-10-29T04:47:11.422Z,98841.50
2023-10-29T04:52:13.015Z,98872.84
2023-10-29T04:57:14.393Z,98857.38
2023-10-29T05:02:19.052Z,98790.94
2023-10-29T05:07:20.964Z,98824.06
2023-10-29T05:12:22.345Z,98854.81
2023-10-29T05:17:23.712Z,98856.88
2023-10-29T05:22:25.127Z,98866.09
2023-10-29T05:27:26.495Z,98876.88
2023-10-29T05:32:28.089Z,98905.22
2023-10-29T05:37:29.574Z,98917.28
2023-10-29T05:42:32.570Z,98936.72
2023-10-29T05:47:34.300Z,98956.91
2023-10-29T05:52:35.892Z,98955.84
2023-10-29T05:57:37.315Z,98956.66
2023-10-29T06:02:40.142Z,98955.09
2023-10-29T06:07:45.200Z,98952.47
2023-10-29T06:12:46.810Z,98955.06
2023-10-29T06:17:49.510Z,98961.41
2023-10-29T06:22:50.972Z,98956.13
2023-10-29T06:27:52.321Z,98984.00
2023-10-29T06:32:53.804Z,98983.25
2023-10-29T06:37:56.128Z,98996.06
2023-10-29T06:42:57.516Z,99001.06
2023-10-29T06:47:59.329Z,98987.66
2023-10-29T06:53:00.738Z,98985.84
2023-10-29T06:58:02.146Z,98968.22
2023-10-29T07:03:03.860Z,98964.00
2023-10-29T07:08:05.503Z,98980.78
2023-10-29T07:13:07.059Z,98978.47
2023-10-29T07:18:08.680Z,98995.03
2023-10-29T07:23:10.193Z,98993.75
2023-10-29T07:28:11.598Z,99013.47
2023-10-29T07:33:13.122Z,99007.97
2023-10-29T07:38:14.806Z,99013.00
2023-10-29T07:43:16.483Z,99033.53
2023-10-29T07:48:19.049Z,99048.78
2023-10-29T07:53:20.590Z,99060.09
2023-10-29T07:58:23.092Z,99058.81
2023-10-29T08:03:24.674Z,99048.53
2023-10-29T08:08:26.148Z,99053.88
2023-10-29T08:13:27.535Z,99047.78
2023-10-29T08:18:28.961Z,99056.09
2023-10-29T08:23:30.784Z,99043.75
2023-10-29T08:28:32.326Z,99046.72
2023-10-29T08:33:33.892Z,99065.19
2023-10-29T08:38:35.628Z,99059.13
2023-10-29T08:43:36.972Z,99057.53
2023-10-29T08:48:38.939Z,99073.31
2023-10-29T08:53:40.392Z,99096.22
2023-10-29T08:58:41.784Z,99104.13
2023-10-29T09:03:43.611Z,99124.13
2023-10-29T09:08:45.057Z,99142.97
2023-10-29T09:13:46.459Z,99126.44
2023-10-29T09:18:47.812Z,99120.88
2023-10-29T09:23:49.168Z,99131.66
2023-10-29T09:28:50.547Z,99137.78
2023-10-29T09:33:52.417Z,99141.41
2023-10-29T09:38:53.884Z,99137.19
2023-10-29T09:43:56.804Z,99118.75
2023-10-29T09:48:59.404Z,99120.06
2023-10-29T09:54:01.099Z,99116.13
2023-10-29T09:59:06.107Z,99092.72
2023-10-29T10:04:07.685Z,99062.56
2023-10-29T10:09:09.432Z,99053.09
2023-10-29T10:14:25.459Z,99072.56
2023-10-29T10:19:26.827Z,99071.97
2023-10-29T10:24:40.719Z,99063.53
2023-10-29T10:29:42.167Z,99075.13
2023-10-29T10:34:50.967Z,99063.06
2023-10-29T10:39:52.340Z,99048.84
2023-10-29T10:44:55.451Z,99050.41
2023-10-29T10:49:57.489Z,99069.88
2023-10-29T10:54:59.175Z,99064.13
2023-10-29T11:00:04.919Z,99109.34
2023-10-29T11:05:08.148Z,99108.06
2023-10-29T11:10:12.875Z,99066.47
2023-10-29T11:15:18.201Z,99063.63
2023-10-29T11:20:38.135Z,99106.75
2023-10-29T11:25:42.670Z,99096.78
2023-10-29T11:30:44.054Z,99057.47
2023-10-29T11:35:47.544Z,99044.47
2023-10-29T11:40:50.985Z,99075.06
2023-10-29T11:45:55.862Z,99073.78
2023-10-29T11:51:17.574Z,99073.97
2023-10-29T11:56:19.213Z,99066.66
2023-10-29T12:01:20.646Z,99097.63
2023-10-29T12:06:22.107Z,99105.78
2023-10-29T12:11:26.227Z,99097.97
2023-10-29T12:16:27.586Z,99044.59
2023-10-29T12:21:29.064Z,99042.31
2023-10-29T12:26:30.542Z,99067.19
2023-10-29T12:31:31.996Z,99059.22
2023-10-29T12:36:33.448Z,99072.38
2023-10-29T12:41:34.880Z,99083.53
2023-10-29T12:46:47.699Z,99105.69
2023-10-29T12:51:54.010Z,99126.25
2023-10-29T12:56:56.527Z,99127.81
2023-10-29T13:02:02.116Z,99094.41
2023-10-29T13:07:15.053Z,99035.88
2023-10-29T13:12:17.822Z,99027.75
2023-10-29T13:17:19.323Z,99012.03
2023-10-29T13:22:22.933Z,99049.75
2023-10-29T13:27:24.320Z,99056.88
2023-10-29T13:32:26.125Z,99055.38
2023-10-29T13:37:28.109Z,99069.34
2023-10-29T13:42:29.481Z,99078.19
2023-10-29T13:47:30.907Z,99057.69
2023-10-29T13:52:32.349Z,99074.63
2023-10-29T13:57:35.046Z,99081.50
2023-10-29T14:02:36.706Z,99030.47
2023-10-29T14:07:38.802Z,99012.41
2023-10-29T14:12:44.445Z,98996.19
2023-10-29T14:17:45.872Z,98967.84
2023-10-29T14:22:47.926Z,98955.72
2023-10-29T14:27:49.288Z,98965.22
2023-10-29T14:32:50.698Z,98988.59
2023-10-29T14:37:53.376Z,98970.47
2023-10-29T14:43:09.284Z,98971.25
2023-10-29T14:48:17.368Z,98969.94
2023-10-29T14:53:19.432Z,98995.97
2023-10-29T14:58:20.784Z,99002.53
2023-10-29T15:03:23.164Z,99009.84
2023-10-29T15:08:25.314Z,99050.06
2023-10-29T15:13:26.703Z,99054.81
2023-10-29T15:18:29.034Z,99036.13
2023-10-29T15:23:30.406Z,99026.13
2023-10-29T15:28:31.753Z,99056.63
2023-10-29T15:33:33.118Z,99060.03
2023-10-29T15:38:34.754Z,99045.06
2023-10-29T15:43:36.954Z,99054.75
2023-10-29T15:48:38.693Z,99046.56
2023-10-29T15:53:40.345Z,99076.75
2023-10-29T15:58:41.679Z,99106.97
2023-10-29T16:03:44.407Z,99118.50
2023-10-29T16:08:45.808Z,99089.09
2023-10-29T16:13:47.144Z,99056.47
2023-10-29T16:18:48.602Z,99059.09
2023-10-29T16:23:50.007Z,99080.56
2023-10-29T16:28:51.378Z,99097.25
2023-10-29T16:33:52.859Z,99109.25
2023-10-29T16:38:57.064Z,99106.25
2023-10-29T16:43:59.631Z,99102.84
2023-10-29T16:49:03.026Z,99114.03
2023-10-29T16:54:04.947Z,99128.59
2023-10-29T16:59:06.443Z,99136.84
2023-10-29T17:04:07.981Z,99138.84
2023-10-29T17:09:09.412Z,99138.22
2023-10-29T17:14:15.371Z,99145.38
2023-10-29T17:19:16.992Z,99142.34
2023-10-29T17:24:18.557Z,99156.28
2023-10-29T17:29:19.967Z,99158.78
2023-10-29T17:34:21.439Z,99168.63
2023-10-29T17:39:26.129Z,99185.34
2023-10-29T17:44:28.622Z,99198.34
2023-10-29T17:49:29.963Z,99199.00
2023-10-29T17:54:33.001Z,99215.66
2023-10-29T17:59:34.685Z,99222.03
2023-10-29T18:04:36.062Z,99232.53
2023-10-29T18:09:37.555Z,99236.75
2023-10-29T18:14:39.201Z,99243.28
2023-10-29T18:19:40.849Z,99237.97
2023-10-29T18:24:42.315Z,99237.06
2023-10-29T18:29:44.369Z,99252.22
2023-10-29T18:34:45.903Z,99247.97
2023-10-29T18:39:47.462Z,99256.50
2023-10-29T18:44:49.480Z,99266.06
2023-10-29T18:49:51.161Z,99272.81
2023-10-29T18:54:53.085Z,99282.41
2023-10-29T18:59:54.773Z,99273.78
2023-10-29T19:04:56.156Z,99277.66
2023-10-29T19:09:58.581Z,99289.63
2023-10-29T19:15:00.059Z,99291.94
2023-10-29T19:20:01.445Z,99306.50
2023-10-29T19:25:03.348Z,99316.88
2023-10-29T19:30:05.857Z,99341.63
2023-10-29T19:35:07.497Z,99347.50
2023-10-29T19:40:09.683Z,99352.91
2023-10-29T19:45:11.125Z,99371.72
2023-10-29T19:50:13.534Z,99388.88
2023-10-29T19:55:17.168Z,99390.41
2023-10-29T20:00:20.847Z,99395.53
2023-10-29T20:05:22.611Z,99393.81
2023-10-29T20:10:24.144Z,99404.28
2023-10-29T20:15:25.636Z,99403.88
2023-10-29T20:20:27.482Z,99401.53
2023-10-29T20:25:29.069Z,99394.94
2023-10-29T20:30:30.483Z,99400.00
2023-10-29T20:35:33.808Z,99420.19
2023-10-29T20:40:35.425Z,99446.41
2023-10-29T20:45:36.979Z,99453.81
2023-10-29T20:50:38.475Z,99461.97
2023-10-29T20:55:39.869Z,99479.75
2023-10-29T21:00:41.918Z,99473.41
2023-10-29T21:05:44.230Z,99481.59
2023-10-29T21:10:45.754Z,99492.44
2023-10-29T21:15:47.907Z,99511.00
2023-10-29T21:20:49.273Z,99509.53
2023-10-29T21:25:53.665Z,99504.63
2023-10-29T21:30:55.044Z,99502.25
2023-10-29T21:35:56.547Z,99518.38
2023-10-29T21:41:05.036Z,99515.31
2023-10-29T21:46:06.917Z,99509.47
2023-10-29T21:51:08.544Z,99525.19
2023-10-29T21:56:10.204Z,99520.88
2023-10-29T22:01:13.396Z,99529.25
2023-10-29T22:06:14.936Z,99537.72
2023-10-29T22:11:16.317Z,99548.19
2023-10-29T22:16:17.729Z,99555.94
2023-10-29T22:21:19.140Z,99564.69
2023-10-29T22:26:20.512Z,99563.13
2023-10-29T22:31:21.903Z,99560.72
2023-10-29T22:36:23.354Z,99551.38
2023-10-29T22:41:25.003Z,99547.63
2023-10-29T22:46:26.371Z,99561.41
2023-10-29T22:51:27.807Z,99571.09
2023-10-29T22:56:29.371Z,99562.19
2023-10-29T23:01:30.856Z,99567.31
2023-10-29T23:06:32.306Z,99576.66
2023-10-29T23:11:33.830Z,99570.19
2023-10-29T23:16:35.376Z,99572.56
2023-10-29T23:21:37.006Z,99574.28
2023-10-29T23:26:38.653Z,99571.66
2023-10-29T23:31:40.241Z,99578.47
2023-10-29T23:36:41.708Z,99583.38
2023-10-29T23:41:43.140Z,99577.22
2023-10-29T23:46:44.499Z,99594.88
2023-10-29T23:51:45.857Z,99608.72
2023-10-29T23:56:47.299Z,99603.84
